Meteo Giornale » Osservazioni meteo Italia » Aosta

ore: 16:50 - Osservazioni Meteo Aosta
Lat. 45° 44' N Lon. 7° 22' E Alt. 546 metri s.l.m.

sereno Europe/Rome

26 °C

Sereno

Temp. 24 Ore

8 °C

27 °C

Ovest/Sud-Ovest

35.2 Km/h

Dew point 3 °C

Umidità 22 %

Visibilità  10 Km

Il sole sorge alle ore 06:25

Il sole tramonta alle ore 20:31

Data e Ora Cielo e Fenomeni T °C DP °C Um. % Pres. hPa Vis. km Vento km/h
Oggi h: 16:50 sereno Sereno 26 3 22 1014 10 O/SO 35.2
Oggi h: 16:20 sereno Sereno 26 2 20 1014 10 O 35.2
Oggi h: 15:50 sereno Sereno 26 4 24 1014 10 O/SO 33.3
Oggi h: 15:20 sereno Sereno 27 4 22 1014 10 O/SO 25.9
Oggi h: 14:50 sereno Sereno 26 1 19 1014 10 O/SO 31.5
Oggi h: 14:20 sereno Sereno 26 2 20 1014 10 O/SO 29.6
Oggi h: 13:50 sereno Sereno 26 4 24 1015 10 N 7.4
Oggi h: 13:20 sereno Sereno 25 8 33 1015 10 SE 7.4
Oggi h: 12:50 sereno Sereno 23 4 28 1016 10 N 3.7
Oggi h: 12:20 sereno Sereno 22 7 37 1016 10 N 3.7
Oggi h: 11:50 sereno Sereno 21 7 40 1017 10 N 5.5
Oggi h: 11:20 sereno Sereno 19 3 34 1017 10 N 1.8
Oggi h: 10:50 sereno Sereno 19 2 32 1018 10 N 1.8
Oggi h: 10:20 sereno Sereno 17 4 41 1018 10 N 3.7
Oggi h: 09:50 sereno Sereno 17 5 45 1018 10 N 0
Oggi h: 09:20 sereno Sereno 15 6 54 1019 10 N 1.8
Oggi h: 08:50 sereno Sereno 13 6 62 1019 10 N 0
Oggi h: 08:20 sereno Sereno 12 6 66 1019 10 N 0
Oggi h: 07:50 sereno Sereno 11 5 66 1019 10 N 0
Oggi h: 07:20 sereno Sereno 9 5 75 1019 10 N 0
Oggi h: 06:50 sereno Sereno 9 4 70 1019 10 N 0
Oggi h: 06:20 sereno Sereno 8 4 75 1019 10 N 18.5
Ieri h: 20:50 sereno Sereno 20 8 45 1016 10 N 5.5
Ieri h: 20:20 sereno Sereno 20 8 45 1016 10 E 16.7
Ieri h: 19:50 sereno Sereno 22 8 40 1016 10 E/SE 11.1
Ieri h: 19:20 sereno Sereno 23 8 38 1015 10 E/SE 16.7
Ieri h: 18:50 sereno Sereno 24 9 38 1015 10 E 20.3